Stonewall, Texas
Current Conditions -  °F | °C
As of 8:15 PM on Tuesday 21 Oct 2014 (Local Time) from KT82 Reporting Station
Clear Clear  
Wind Chill: 68°   Ceiling: Unl
Heat Index: 68°   Visibility: 10mi
Dew Point: 54°   Wind: 5mph
Humidity: 59%   Direction: 80°E
Pressure: 30.05"   Gusts: NA
Location:  30.24°N, 98.67°W
Report Text: KT82 220115Z AUTO 08004KT 10SM CLR 20/12 A3005 RMK AO2 T02020120
Loading
Personal Weather Stations






























Interactive Weather Map
Tropical Storm Tracking
New forecast layout! Learn more

10-Day Weather Forecast

Advertisements
Track Severe Weather on mobile